sensor_id;sensor_type;location;lat;lon;timestamp;P1;durP1;ratioP1;P2;durP2;ratioP2
70102;SDS011;57470;50.034;15.256;2023-08-24T00:01:25;5.05;;;1.88;;
70102;SDS011;57470;50.034;15.256;2023-08-24T00:03:51;6.10;;;2.20;;
70102;SDS011;57470;50.034;15.256;2023-08-24T00:06:17;6.43;;;1.80;;
70102;SDS011;57470;50.034;15.256;2023-08-24T00:08:43;6.97;;;1.98;;
70102;SDS011;57470;50.034;15.256;2023-08-24T00:11:09;6.47;;;1.80;;
70102;SDS011;57470;50.034;15.256;2023-08-24T00:13:39;5.70;;;2.00;;
70102;SDS011;57470;50.034;15.256;2023-08-24T00:16:05;6.13;;;2.25;;
70102;SDS011;57470;50.034;15.256;2023-08-24T00:18:31;6.90;;;1.67;;
70102;SDS011;57470;50.034;15.256;2023-08-24T00:20:57;7.43;;;1.92;;
70102;SDS011;57470;50.034;15.256;2023-08-24T00:23:23;6.90;;;2.23;;
70102;SDS011;57470;50.034;15.256;2023-08-24T00:25:50;5.43;;;2.30;;
70102;SDS011;57470;50.034;15.256;2023-08-24T00:28:15;5.70;;;2.70;;
70102;SDS011;57470;50.034;15.256;2023-08-24T00:30:40;5.67;;;2.13;;
70102;SDS011;57470;50.034;15.256;2023-08-24T00:33:06;5.63;;;2.13;;
70102;SDS011;57470;50.034;15.256;2023-08-24T00:35:31;6.47;;;2.40;;
70102;SDS011;57470;50.034;15.256;2023-08-24T00:37:56;5.97;;;2.30;;
70102;SDS011;57470;50.034;15.256;2023-08-24T00:40:22;5.40;;;2.37;;
70102;SDS011;57470;50.034;15.256;2023-08-24T00:42:47;5.35;;;2.35;;
70102;SDS011;57470;50.034;15.256;2023-08-24T00:45:13;8.53;;;2.23;;
70102;SDS011;57470;50.034;15.256;2023-08-24T00:47:39;5.80;;;2.42;;
70102;SDS011;57470;50.034;15.256;2023-08-24T00:50:07;5.93;;;2.37;;
70102;SDS011;57470;50.034;15.256;2023-08-24T00:52:33;6.47;;;2.22;;
70102;SDS011;57470;50.034;15.256;2023-08-24T00:55:02;6.78;;;2.13;;
70102;SDS011;57470;50.034;15.256;2023-08-24T00:57:27;5.97;;;2.20;;
70102;SDS011;57470;50.034;15.256;2023-08-24T00:59:54;7.70;;;2.28;;
70102;SDS011;57470;50.034;15.256;2023-08-24T01:02:21;6.60;;;2.25;;
70102;SDS011;57470;50.034;15.256;2023-08-24T01:04:46;5.60;;;2.67;;
70102;SDS011;57470;50.034;15.256;2023-08-24T01:07:12;6.97;;;2.88;;
70102;SDS011;57470;50.034;15.256;2023-08-24T01:09:39;5.40;;;2.10;;
70102;SDS011;57470;50.034;15.256;2023-08-24T01:14:42;5.68;;;2.63;;
70102;SDS011;57470;50.034;15.256;2023-08-24T01:17:15;6.53;;;2.42;;
70102;SDS011;57470;50.034;15.256;2023-08-24T01:19:47;7.22;;;2.75;;
70102;SDS011;57470;50.034;15.256;2023-08-24T01:22:24;10.10;;;2.38;;
70102;SDS011;57470;50.034;15.256;2023-08-24T01:25:16;7.63;;;2.20;;
70102;SDS011;57470;50.034;15.256;2023-08-24T01:28:02;5.68;;;1.98;;
70102;SDS011;57470;50.034;15.256;2023-08-24T01:30:30;10.60;;;2.13;;
70102;SDS011;57470;50.034;15.256;2023-08-24T01:32:56;7.55;;;2.28;;
70102;SDS011;57470;50.034;15.256;2023-08-24T01:35:21;5.40;;;2.07;;
70102;SDS011;57470;50.034;15.256;2023-08-24T01:37:47;7.07;;;2.63;;
70102;SDS011;57470;50.034;15.256;2023-08-24T01:43:02;6.47;;;2.73;;
70102;SDS011;57470;50.034;15.256;2023-08-24T01:45:31;6.15;;;1.88;;
70102;SDS011;57470;50.034;15.256;2023-08-24T01:47:57;5.47;;;2.35;;
70102;SDS011;57470;50.034;15.256;2023-08-24T01:50:25;6.55;;;2.20;;
70102;SDS011;57470;50.034;15.256;2023-08-24T01:52:51;8.73;;;2.17;;
70102;SDS011;57470;50.034;15.256;2023-08-24T01:55:20;5.55;;;2.20;;
70102;SDS011;57470;50.034;15.256;2023-08-24T01:57:46;7.20;;;2.42;;
70102;SDS011;57470;50.034;15.256;2023-08-24T02:00:13;11.50;;;2.03;;
70102;SDS011;57470;50.034;15.256;2023-08-24T02:02:39;10.20;;;2.20;;
70102;SDS011;57470;50.034;15.256;2023-08-24T02:05:04;9.00;;;2.67;;
70102;SDS011;57470;50.034;15.256;2023-08-24T02:07:30;6.65;;;2.17;;
70102;SDS011;57470;50.034;15.256;2023-08-24T02:09:55;5.43;;;2.00;;
70102;SDS011;57470;50.034;15.256;2023-08-24T02:12:21;9.43;;;2.33;;
70102;SDS011;57470;50.034;15.256;2023-08-24T02:14:47;5.47;;;2.50;;
70102;SDS011;57470;50.034;15.256;2023-08-24T02:17:14;5.90;;;2.10;;
70102;SDS011;57470;50.034;15.256;2023-08-24T02:19:41;7.07;;;2.30;;
70102;SDS011;57470;50.034;15.256;2023-08-24T02:22:08;4.85;;;2.22;;
70102;SDS011;57470;50.034;15.256;2023-08-24T02:24:35;5.20;;;1.95;;
70102;SDS011;57470;50.034;15.256;2023-08-24T02:27:02;5.72;;;2.35;;
70102;SDS011;57470;50.034;15.256;2023-08-24T02:29:29;5.60;;;2.70;;
70102;SDS011;57470;50.034;15.256;2023-08-24T02:31:56;7.13;;;2.40;;
70102;SDS011;57470;50.034;15.256;2023-08-24T02:34:22;5.03;;;2.10;;
70102;SDS011;57470;50.034;15.256;2023-08-24T02:36:48;5.13;;;1.93;;
70102;SDS011;57470;50.034;15.256;2023-08-24T02:39:15;5.55;;;1.98;;
70102;SDS011;57470;50.034;15.256;2023-08-24T02:41:42;6.82;;;2.35;;
70102;SDS011;57470;50.034;15.256;2023-08-24T02:44:09;5.32;;;2.25;;
70102;SDS011;57470;50.034;15.256;2023-08-24T02:46:36;5.35;;;2.33;;
70102;SDS011;57470;50.034;15.256;2023-08-24T02:49:03;6.47;;;2.63;;
70102;SDS011;57470;50.034;15.256;2023-08-24T02:51:31;6.60;;;2.10;;
70102;SDS011;57470;50.034;15.256;2023-08-24T02:53:57;5.25;;;2.13;;
70102;SDS011;57470;50.034;15.256;2023-08-24T02:56:24;5.72;;;2.35;;
70102;SDS011;57470;50.034;15.256;2023-08-24T02:58:51;5.85;;;2.17;;
70102;SDS011;57470;50.034;15.256;2023-08-24T03:01:18;6.47;;;2.60;;
70102;SDS011;57470;50.034;15.256;2023-08-24T03:03:45;6.20;;;2.47;;
70102;SDS011;57470;50.034;15.256;2023-08-24T03:06:11;5.80;;;2.38;;
70102;SDS011;57470;50.034;15.256;2023-08-24T03:08:38;5.93;;;2.30;;
70102;SDS011;57470;50.034;15.256;2023-08-24T03:11:05;5.32;;;2.15;;
70102;SDS011;57470;50.034;15.256;2023-08-24T03:13:31;5.40;;;2.30;;
70102;SDS011;57470;50.034;15.256;2023-08-24T03:15:57;5.68;;;2.65;;
70102;SDS011;57470;50.034;15.256;2023-08-24T03:18:22;6.73;;;2.77;;
70102;SDS011;57470;50.034;15.256;2023-08-24T03:20:48;6.67;;;2.60;;
70102;SDS011;57470;50.034;15.256;2023-08-24T03:23:17;6.57;;;2.95;;
70102;SDS011;57470;50.034;15.256;2023-08-24T03:25:42;10.85;;;3.33;;
70102;SDS011;57470;50.034;15.256;2023-08-24T03:28:08;6.18;;;2.45;;
70102;SDS011;57470;50.034;15.256;2023-08-24T03:30:35;6.15;;;2.47;;
70102;SDS011;57470;50.034;15.256;2023-08-24T03:33:01;5.50;;;1.90;;
70102;SDS011;57470;50.034;15.256;2023-08-24T03:35:28;6.47;;;2.47;;
70102;SDS011;57470;50.034;15.256;2023-08-24T03:37:55;5.80;;;2.45;;
70102;SDS011;57470;50.034;15.256;2023-08-24T03:40:20;6.20;;;3.37;;
70102;SDS011;57470;50.034;15.256;2023-08-24T03:42:45;7.13;;;2.83;;
70102;SDS011;57470;50.034;15.256;2023-08-24T03:45:11;5.40;;;2.13;;
70102;SDS011;57470;50.034;15.256;2023-08-24T03:47:36;10.30;;;2.40;;
70102;SDS011;57470;50.034;15.256;2023-08-24T03:50:02;5.60;;;2.30;;
70102;SDS011;57470;50.034;15.256;2023-08-24T03:52:27;6.67;;;2.57;;
70102;SDS011;57470;50.034;15.256;2023-08-24T03:54:53;5.82;;;2.45;;
70102;SDS011;57470;50.034;15.256;2023-08-24T03:57:18;6.30;;;2.73;;
70102;SDS011;57470;50.034;15.256;2023-08-24T03:59:44;6.67;;;2.83;;
70102;SDS011;57470;50.034;15.256;2023-08-24T04:02:09;6.97;;;3.07;;
70102;SDS011;57470;50.034;15.256;2023-08-24T04:04:34;6.10;;;2.53;;
70102;SDS011;57470;50.034;15.256;2023-08-24T04:07:00;6.60;;;2.75;;
70102;SDS011;57470;50.034;15.256;2023-08-24T04:09:27;6.45;;;2.53;;
70102;SDS011;57470;50.034;15.256;2023-08-24T04:11:52;5.73;;;2.47;;
70102;SDS011;57470;50.034;15.256;2023-08-24T04:14:17;6.07;;;2.50;;
70102;SDS011;57470;50.034;15.256;2023-08-24T04:16:43;7.47;;;2.33;;
70102;SDS011;57470;50.034;15.256;2023-08-24T04:19:08;7.23;;;2.77;;
70102;SDS011;57470;50.034;15.256;2023-08-24T04:21:34;7.20;;;2.50;;
70102;SDS011;57470;50.034;15.256;2023-08-24T04:24:00;6.20;;;2.80;;
70102;SDS011;57470;50.034;15.256;2023-08-24T04:26:25;11.50;;;3.00;;
70102;SDS011;57470;50.034;15.256;2023-08-24T04:28:50;5.90;;;2.60;;
70102;SDS011;57470;50.034;15.256;2023-08-24T04:31:16;6.43;;;2.83;;
70102;SDS011;57470;50.034;15.256;2023-08-24T04:33:41;8.63;;;2.17;;
70102;SDS011;57470;50.034;15.256;2023-08-24T04:36:07;8.05;;;3.05;;
70102;SDS011;57470;50.034;15.256;2023-08-24T04:38:32;9.13;;;2.97;;
70102;SDS011;57470;50.034;15.256;2023-08-24T04:40:57;6.33;;;2.63;;
70102;SDS011;57470;50.034;15.256;2023-08-24T04:43:23;9.47;;;3.27;;
70102;SDS011;57470;50.034;15.256;2023-08-24T04:45:50;6.65;;;2.55;;
70102;SDS011;57470;50.034;15.256;2023-08-24T04:48:19;9.30;;;3.03;;
70102;SDS011;57470;50.034;15.256;2023-08-24T04:50:45;10.43;;;3.00;;
70102;SDS011;57470;50.034;15.256;2023-08-24T04:53:14;6.03;;;2.33;;
70102;SDS011;57470;50.034;15.256;2023-08-24T04:55:41;7.57;;;3.13;;
70102;SDS011;57470;50.034;15.256;2023-08-24T04:58:08;6.43;;;2.58;;
70102;SDS011;57470;50.034;15.256;2023-08-24T05:00:33;5.57;;;2.27;;
70102;SDS011;57470;50.034;15.256;2023-08-24T05:03:00;7.40;;;2.60;;
70102;SDS011;57470;50.034;15.256;2023-08-24T05:05:26;7.30;;;3.22;;
70102;SDS011;57470;50.034;15.256;2023-08-24T05:07:53;7.22;;;2.90;;
70102;SDS011;57470;50.034;15.256;2023-08-24T05:10:19;7.57;;;3.20;;
70102;SDS011;57470;50.034;15.256;2023-08-24T05:12:45;7.67;;;2.97;;
70102;SDS011;57470;50.034;15.256;2023-08-24T05:15:11;7.83;;;3.50;;
70102;SDS011;57470;50.034;15.256;2023-08-24T05:17:38;7.80;;;3.40;;
70102;SDS011;57470;50.034;15.256;2023-08-24T05:20:03;8.60;;;3.53;;
70102;SDS011;57470;50.034;15.256;2023-08-24T05:22:29;6.45;;;3.03;;
70102;SDS011;57470;50.034;15.256;2023-08-24T05:24:54;7.63;;;3.33;;
70102;SDS011;57470;50.034;15.256;2023-08-24T05:27:20;8.13;;;3.30;;
70102;SDS011;57470;50.034;15.256;2023-08-24T05:29:45;7.07;;;3.05;;
70102;SDS011;57470;50.034;15.256;2023-08-24T05:32:10;7.27;;;3.83;;
70102;SDS011;57470;50.034;15.256;2023-08-24T05:34:36;7.50;;;3.27;;
70102;SDS011;57470;50.034;15.256;2023-08-24T05:37:01;8.27;;;3.37;;
70102;SDS011;57470;50.034;15.256;2023-08-24T05:39:26;7.30;;;3.70;;
70102;SDS011;57470;50.034;15.256;2023-08-24T05:41:52;7.67;;;3.20;;
70102;SDS011;57470;50.034;15.256;2023-08-24T05:44:18;7.70;;;3.17;;
70102;SDS011;57470;50.034;15.256;2023-08-24T05:46:45;7.50;;;3.17;;
70102;SDS011;57470;50.034;15.256;2023-08-24T05:49:11;8.37;;;3.87;;
70102;SDS011;57470;50.034;15.256;2023-08-24T05:51:36;7.63;;;3.25;;
70102;SDS011;57470;50.034;15.256;2023-08-24T05:54:02;9.00;;;3.40;;
70102;SDS011;57470;50.034;15.256;2023-08-24T05:56:27;12.17;;;3.53;;
70102;SDS011;57470;50.034;15.256;2023-08-24T05:58:54;9.48;;;3.70;;
70102;SDS011;57470;50.034;15.256;2023-08-24T06:01:19;10.40;;;3.83;;
70102;SDS011;57470;50.034;15.256;2023-08-24T06:03:45;7.43;;;3.83;;
70102;SDS011;57470;50.034;15.256;2023-08-24T06:06:10;9.33;;;4.33;;
70102;SDS011;57470;50.034;15.256;2023-08-24T06:08:36;11.40;;;4.33;;
70102;SDS011;57470;50.034;15.256;2023-08-24T06:11:02;9.77;;;4.13;;
70102;SDS011;57470;50.034;15.256;2023-08-24T06:13:27;10.80;;;4.53;;
70102;SDS011;57470;50.034;15.256;2023-08-24T06:15:53;9.43;;;3.97;;
70102;SDS011;57470;50.034;15.256;2023-08-24T06:18:19;11.07;;;4.47;;
70102;SDS011;57470;50.034;15.256;2023-08-24T06:20:45;10.77;;;4.63;;
70102;SDS011;57470;50.034;15.256;2023-08-24T06:23:11;9.68;;;5.10;;
70102;SDS011;57470;50.034;15.256;2023-08-24T06:25:38;9.10;;;4.10;;
70102;SDS011;57470;50.034;15.256;2023-08-24T06:28:03;11.57;;;5.10;;
70102;SDS011;57470;50.034;15.256;2023-08-24T06:30:29;9.40;;;4.60;;
70102;SDS011;57470;50.034;15.256;2023-08-24T06:33:01;12.57;;;4.32;;
70102;SDS011;57470;50.034;15.256;2023-08-24T06:35:28;9.25;;;4.15;;
70102;SDS011;57470;50.034;15.256;2023-08-24T06:37:53;8.30;;;4.03;;
70102;SDS011;57470;50.034;15.256;2023-08-24T06:40:18;8.93;;;4.67;;
70102;SDS011;57470;50.034;15.256;2023-08-24T06:42:44;8.02;;;3.70;;
70102;SDS011;57470;50.034;15.256;2023-08-24T06:45:09;9.10;;;3.90;;
70102;SDS011;57470;50.034;15.256;2023-08-24T06:47:35;8.03;;;3.83;;
70102;SDS011;57470;50.034;15.256;2023-08-24T06:50:01;9.32;;;4.70;;
70102;SDS011;57470;50.034;15.256;2023-08-24T06:52:26;10.13;;;4.23;;
70102;SDS011;57470;50.034;15.256;2023-08-24T06:54:53;9.98;;;4.28;;
70102;SDS011;57470;50.034;15.256;2023-08-24T06:57:21;17.10;;;5.05;;
70102;SDS011;57470;50.034;15.256;2023-08-24T06:59:46;8.83;;;4.57;;
70102;SDS011;57470;50.034;15.256;2023-08-24T07:02:11;12.83;;;4.17;;
70102;SDS011;57470;50.034;15.256;2023-08-24T07:04:37;10.77;;;5.15;;
70102;SDS011;57470;50.034;15.256;2023-08-24T07:07:05;10.60;;;4.57;;
70102;SDS011;57470;50.034;15.256;2023-08-24T07:09:30;10.73;;;5.20;;
70102;SDS011;57470;50.034;15.256;2023-08-24T07:11:56;11.33;;;4.47;;
70102;SDS011;57470;50.034;15.256;2023-08-24T07:14:21;9.17;;;4.93;;
70102;SDS011;57470;50.034;15.256;2023-08-24T07:16:46;8.90;;;4.47;;
70102;SDS011;57470;50.034;15.256;2023-08-24T07:19:12;13.85;;;4.35;;
70102;SDS011;57470;50.034;15.256;2023-08-24T07:21:37;9.40;;;5.00;;
70102;SDS011;57470;50.034;15.256;2023-08-24T07:24:03;10.00;;;4.63;;
70102;SDS011;57470;50.034;15.256;2023-08-24T07:26:28;8.27;;;4.35;;
70102;SDS011;57470;50.034;15.256;2023-08-24T07:28:55;7.90;;;3.93;;
70102;SDS011;57470;50.034;15.256;2023-08-24T07:31:21;7.95;;;4.30;;
70102;SDS011;57470;50.034;15.256;2023-08-24T07:33:47;11.77;;;4.37;;
70102;SDS011;57470;50.034;15.256;2023-08-24T07:36:13;10.13;;;4.18;;
70102;SDS011;57470;50.034;15.256;2023-08-24T07:38:38;14.17;;;4.67;;
70102;SDS011;57470;50.034;15.256;2023-08-24T07:41:04;10.40;;;4.90;;
70102;SDS011;57470;50.034;15.256;2023-08-24T07:43:31;8.55;;;4.43;;
70102;SDS011;57470;50.034;15.256;2023-08-24T07:45:57;7.70;;;3.73;;
70102;SDS011;57470;50.034;15.256;2023-08-24T07:48:23;8.15;;;3.92;;
70102;SDS011;57470;50.034;15.256;2023-08-24T07:50:48;9.67;;;4.40;;
70102;SDS011;57470;50.034;15.256;2023-08-24T07:53:14;10.93;;;4.72;;
70102;SDS011;57470;50.034;15.256;2023-08-24T07:55:39;11.10;;;4.40;;
70102;SDS011;57470;50.034;15.256;2023-08-24T07:58:05;10.95;;;4.88;;
70102;SDS011;57470;50.034;15.256;2023-08-24T08:00:30;8.70;;;4.83;;
70102;SDS011;57470;50.034;15.256;2023-08-24T08:02:56;8.63;;;4.40;;
70102;SDS011;57470;50.034;15.256;2023-08-24T08:05:21;10.10;;;4.27;;
70102;SDS011;57470;50.034;15.256;2023-08-24T08:07:47;8.93;;;5.00;;
70102;SDS011;57470;50.034;15.256;2023-08-24T08:10:13;8.93;;;4.23;;
70102;SDS011;57470;50.034;15.256;2023-08-24T08:12:40;8.30;;;3.90;;
70102;SDS011;57470;50.034;15.256;2023-08-24T08:15:05;8.33;;;3.77;;
70102;SDS011;57470;50.034;15.256;2023-08-24T08:17:31;10.17;;;4.03;;
70102;SDS011;57470;50.034;15.256;2023-08-24T08:19:58;7.68;;;3.85;;
70102;SDS011;57470;50.034;15.256;2023-08-24T08:22:24;8.33;;;3.50;;
70102;SDS011;57470;50.034;15.256;2023-08-24T08:24:50;11.80;;;3.90;;
70102;SDS011;57470;50.034;15.256;2023-08-24T08:27:16;7.47;;;3.78;;
70102;SDS011;57470;50.034;15.256;2023-08-24T08:29:41;8.43;;;4.10;;
70102;SDS011;57470;50.034;15.256;2023-08-24T08:32:07;8.88;;;3.65;;
70102;SDS011;57470;50.034;15.256;2023-08-24T08:34:33;10.60;;;4.25;;
70102;SDS011;57470;50.034;15.256;2023-08-24T08:36:58;9.00;;;3.53;;
70102;SDS011;57470;50.034;15.256;2023-08-24T08:39:24;11.33;;;3.80;;
70102;SDS011;57470;50.034;15.256;2023-08-24T08:41:49;8.23;;;3.37;;
70102;SDS011;57470;50.034;15.256;2023-08-24T08:44:15;6.77;;;3.03;;
70102;SDS011;57470;50.034;15.256;2023-08-24T08:46:44;7.45;;;3.38;;
70102;SDS011;57470;50.034;15.256;2023-08-24T08:49:11;7.05;;;3.05;;
70102;SDS011;57470;50.034;15.256;2023-08-24T08:51:40;7.78;;;3.45;;
70102;SDS011;57470;50.034;15.256;2023-08-24T08:54:06;7.67;;;3.37;;
70102;SDS011;57470;50.034;15.256;2023-08-24T08:56:32;7.10;;;3.00;;
70102;SDS011;57470;50.034;15.256;2023-08-24T08:58:58;7.32;;;3.75;;
70102;SDS011;57470;50.034;15.256;2023-08-24T09:01:25;7.82;;;3.80;;
70102;SDS011;57470;50.034;15.256;2023-08-24T09:03:52;8.82;;;3.33;;
70102;SDS011;57470;50.034;15.256;2023-08-24T09:06:19;8.93;;;3.60;;
70102;SDS011;57470;50.034;15.256;2023-08-24T09:08:44;9.10;;;3.77;;
70102;SDS011;57470;50.034;15.256;2023-08-24T09:11:10;7.18;;;2.85;;
70102;SDS011;57470;50.034;15.256;2023-08-24T09:13:36;7.73;;;3.67;;
70102;SDS011;57470;50.034;15.256;2023-08-24T09:16:05;8.00;;;3.50;;
70102;SDS011;57470;50.034;15.256;2023-08-24T09:18:38;6.93;;;3.28;;
70102;SDS011;57470;50.034;15.256;2023-08-24T09:21:11;7.00;;;2.60;;
70102;SDS011;57470;50.034;15.256;2023-08-24T09:23:44;8.70;;;2.67;;
70102;SDS011;57470;50.034;15.256;2023-08-24T09:26:11;7.63;;;2.60;;
70102;SDS011;57470;50.034;15.256;2023-08-24T09:28:37;7.88;;;2.70;;
70102;SDS011;57470;50.034;15.256;2023-08-24T09:31:04;7.03;;;2.72;;
70102;SDS011;57470;50.034;15.256;2023-08-24T09:33:30;8.17;;;3.03;;
70102;SDS011;57470;50.034;15.256;2023-08-24T09:35:55;7.07;;;2.70;;
70102;SDS011;57470;50.034;15.256;2023-08-24T09:38:26;6.25;;;2.95;;
70102;SDS011;57470;50.034;15.256;2023-08-24T09:40:52;6.53;;;3.13;;
70102;SDS011;57470;50.034;15.256;2023-08-24T09:43:19;8.57;;;3.20;;
70102;SDS011;57470;50.034;15.256;2023-08-24T09:45:49;5.70;;;2.63;;
70102;SDS011;57470;50.034;15.256;2023-08-24T09:48:15;5.95;;;2.40;;
70102;SDS011;57470;50.034;15.256;2023-08-24T09:50:42;5.07;;;2.38;;
70102;SDS011;57470;50.034;15.256;2023-08-24T09:53:09;7.15;;;2.50;;
70102;SDS011;57470;50.034;15.256;2023-08-24T09:55:44;5.72;;;2.53;;
70102;SDS011;57470;50.034;15.256;2023-08-24T09:58:18;6.90;;;3.00;;
70102;SDS011;57470;50.034;15.256;2023-08-24T10:00:45;6.25;;;2.70;;
70102;SDS011;57470;50.034;15.256;2023-08-24T10:03:15;5.53;;;2.60;;
70102;SDS011;57470;50.034;15.256;2023-08-24T10:05:45;6.22;;;2.35;;
70102;SDS011;57470;50.034;15.256;2023-08-24T10:08:12;5.72;;;2.42;;
70102;SDS011;57470;50.034;15.256;2023-08-24T10:10:42;8.87;;;2.73;;
70102;SDS011;57470;50.034;15.256;2023-08-24T10:13:14;5.43;;;1.85;;
70102;SDS011;57470;50.034;15.256;2023-08-24T10:15:46;5.30;;;2.10;;
70102;SDS011;57470;50.034;15.256;2023-08-24T10:18:14;7.30;;;2.65;;
70102;SDS011;57470;50.034;15.256;2023-08-24T10:20:40;10.27;;;4.35;;
70102;SDS011;57470;50.034;15.256;2023-08-24T10:23:07;7.27;;;2.83;;
70102;SDS011;57470;50.034;15.256;2023-08-24T10:25:35;6.88;;;2.63;;
70102;SDS011;57470;50.034;15.256;2023-08-24T10:28:02;6.57;;;2.78;;
70102;SDS011;57470;50.034;15.256;2023-08-24T10:30:29;6.75;;;2.58;;
70102;SDS011;57470;50.034;15.256;2023-08-24T10:32:55;9.48;;;3.20;;
70102;SDS011;57470;50.034;15.256;2023-08-24T10:35:22;5.80;;;2.50;;
70102;SDS011;57470;50.034;15.256;2023-08-24T10:37:51;7.53;;;2.83;;
70102;SDS011;57470;50.034;15.256;2023-08-24T10:40:37;6.03;;;3.05;;
70102;SDS011;57470;50.034;15.256;2023-08-24T10:43:08;6.88;;;2.25;;
70102;SDS011;57470;50.034;15.256;2023-08-24T10:48:19;6.32;;;2.78;;
70102;SDS011;57470;50.034;15.256;2023-08-24T10:51:02;6.63;;;3.17;;
70102;SDS011;57470;50.034;15.256;2023-08-24T10:53:39;6.03;;;3.60;;
70102;SDS011;57470;50.034;15.256;2023-08-24T10:56:13;10.13;;;3.75;;
70102;SDS011;57470;50.034;15.256;2023-08-24T10:58:39;7.80;;;3.83;;
70102;SDS011;57470;50.034;15.256;2023-08-24T11:01:05;6.57;;;3.00;;
70102;SDS011;57470;50.034;15.256;2023-08-24T11:03:31;6.40;;;3.13;;
70102;SDS011;57470;50.034;15.256;2023-08-24T11:05:57;5.85;;;2.90;;
70102;SDS011;57470;50.034;15.256;2023-08-24T11:08:39;7.40;;;2.90;;
70102;SDS011;57470;50.034;15.256;2023-08-24T11:11:18;8.40;;;3.58;;
70102;SDS011;57470;50.034;15.256;2023-08-24T11:16:43;8.03;;;3.87;;
70102;SDS011;57470;50.034;15.256;2023-08-24T11:19:10;6.55;;;3.33;;
70102;SDS011;57470;50.034;15.256;2023-08-24T11:21:37;8.13;;;3.50;;
70102;SDS011;57470;50.034;15.256;2023-08-24T11:24:04;6.82;;;3.03;;
70102;SDS011;57470;50.034;15.256;2023-08-24T11:26:30;7.85;;;3.25;;
70102;SDS011;57470;50.034;15.256;2023-08-24T11:28:56;7.10;;;2.80;;
70102;SDS011;57470;50.034;15.256;2023-08-24T11:31:23;8.00;;;3.72;;
70102;SDS011;57470;50.034;15.256;2023-08-24T11:33:55;8.27;;;3.10;;
70102;SDS011;57470;50.034;15.256;2023-08-24T11:36:21;7.68;;;3.58;;
70102;SDS011;57470;50.034;15.256;2023-08-24T11:38:49;10.38;;;3.80;;
70102;SDS011;57470;50.034;15.256;2023-08-24T11:41:18;6.20;;;3.17;;
70102;SDS011;57470;50.034;15.256;2023-08-24T11:43:45;7.63;;;4.00;;
70102;SDS011;57470;50.034;15.256;2023-08-24T11:46:16;8.87;;;3.30;;
70102;SDS011;57470;50.034;15.256;2023-08-24T11:48:43;6.88;;;3.40;;
70102;SDS011;57470;50.034;15.256;2023-08-24T11:51:10;10.95;;;3.50;;
70102;SDS011;57470;50.034;15.256;2023-08-24T11:53:40;9.93;;;3.00;;
70102;SDS011;57470;50.034;15.256;2023-08-24T11:56:13;8.93;;;3.40;;
70102;SDS011;57470;50.034;15.256;2023-08-24T11:58:42;6.80;;;3.07;;
70102;SDS011;57470;50.034;15.256;2023-08-24T12:01:09;6.65;;;3.17;;
70102;SDS011;57470;50.034;15.256;2023-08-24T12:03:36;9.45;;;2.80;;
70102;SDS011;57470;50.034;15.256;2023-08-24T12:06:06;8.90;;;2.55;;
70102;SDS011;57470;50.034;15.256;2023-08-24T12:08:40;7.30;;;3.42;;
70102;SDS011;57470;50.034;15.256;2023-08-24T12:11:10;8.00;;;3.70;;
70102;SDS011;57470;50.034;15.256;2023-08-24T12:13:43;6.00;;;2.60;;
70102;SDS011;57470;50.034;15.256;2023-08-24T12:16:10;6.75;;;3.15;;
70102;SDS011;57470;50.034;15.256;2023-08-24T12:18:46;9.23;;;3.20;;
70102;SDS011;57470;50.034;15.256;2023-08-24T12:21:12;6.80;;;2.83;;
70102;SDS011;57470;50.034;15.256;2023-08-24T12:23:38;7.03;;;2.97;;
70102;SDS011;57470;50.034;15.256;2023-08-24T12:26:04;8.82;;;3.75;;
70102;SDS011;57470;50.034;15.256;2023-08-24T12:28:33;9.55;;;3.42;;
70102;SDS011;57470;50.034;15.256;2023-08-24T12:31:00;6.95;;;3.88;;
70102;SDS011;57470;50.034;15.256;2023-08-24T12:33:29;9.37;;;4.90;;
70102;SDS011;57470;50.034;15.256;2023-08-24T12:35:56;9.80;;;4.18;;
70102;SDS011;57470;50.034;15.256;2023-08-24T12:38:23;7.47;;;3.90;;
70102;SDS011;57470;50.034;15.256;2023-08-24T12:40:50;5.93;;;3.15;;
70102;SDS011;57470;50.034;15.256;2023-08-24T12:43:16;6.78;;;3.50;;
70102;SDS011;57470;50.034;15.256;2023-08-24T12:45:41;7.43;;;3.33;;
70102;SDS011;57470;50.034;15.256;2023-08-24T12:48:08;8.98;;;3.40;;
70102;SDS011;57470;50.034;15.256;2023-08-24T12:50:37;7.40;;;3.10;;
70102;SDS011;57470;50.034;15.256;2023-08-24T12:53:03;6.97;;;3.67;;
70102;SDS011;57470;50.034;15.256;2023-08-24T12:55:31;6.13;;;3.10;;
70102;SDS011;57470;50.034;15.256;2023-08-24T12:57:58;6.55;;;3.40;;
70102;SDS011;57470;50.034;15.256;2023-08-24T13:00:23;6.75;;;2.80;;
70102;SDS011;57470;50.034;15.256;2023-08-24T13:02:49;7.87;;;3.87;;
70102;SDS011;57470;50.034;15.256;2023-08-24T13:05:15;6.75;;;3.47;;
70102;SDS011;57470;50.034;15.256;2023-08-24T13:07:40;7.80;;;3.30;;
70102;SDS011;57470;50.034;15.256;2023-08-24T13:10:06;7.27;;;2.93;;
70102;SDS011;57470;50.034;15.256;2023-08-24T13:12:31;6.72;;;3.20;;
70102;SDS011;57470;50.034;15.256;2023-08-24T13:14:57;6.57;;;3.43;;
70102;SDS011;57470;50.034;15.256;2023-08-24T13:17:23;8.82;;;3.80;;
70102;SDS011;57470;50.034;15.256;2023-08-24T13:19:48;8.53;;;3.67;;
70102;SDS011;57470;50.034;15.256;2023-08-24T13:22:14;7.20;;;3.17;;
70102;SDS011;57470;50.034;15.256;2023-08-24T13:24:40;6.90;;;3.83;;
70102;SDS011;57470;50.034;15.256;2023-08-24T13:27:07;6.80;;;3.25;;
70102;SDS011;57470;50.034;15.256;2023-08-24T13:29:35;6.57;;;3.30;;
70102;SDS011;57470;50.034;15.256;2023-08-24T13:32:01;6.40;;;3.13;;
70102;SDS011;57470;50.034;15.256;2023-08-24T13:34:27;7.25;;;3.50;;
70102;SDS011;57470;50.034;15.256;2023-08-24T13:36:52;6.40;;;3.30;;
70102;SDS011;57470;50.034;15.256;2023-08-24T13:39:18;6.07;;;3.13;;
70102;SDS011;57470;50.034;15.256;2023-08-24T13:41:43;6.18;;;3.30;;
70102;SDS011;57470;50.034;15.256;2023-08-24T13:44:09;10.27;;;3.67;;
70102;SDS011;57470;50.034;15.256;2023-08-24T13:46:34;8.47;;;3.13;;
70102;SDS011;57470;50.034;15.256;2023-08-24T13:48:59;6.20;;;3.13;;
70102;SDS011;57470;50.034;15.256;2023-08-24T13:51:25;6.87;;;4.00;;
70102;SDS011;57470;50.034;15.256;2023-08-24T13:53:50;6.53;;;3.13;;
70102;SDS011;57470;50.034;15.256;2023-08-24T13:56:15;6.13;;;2.97;;
70102;SDS011;57470;50.034;15.256;2023-08-24T13:58:41;6.90;;;3.50;;
70102;SDS011;57470;50.034;15.256;2023-08-24T14:01:06;7.33;;;3.57;;
70102;SDS011;57470;50.034;15.256;2023-08-24T14:03:32;8.53;;;3.10;;
70102;SDS011;57470;50.034;15.256;2023-08-24T14:05:57;6.68;;;3.25;;
70102;SDS011;57470;50.034;15.256;2023-08-24T14:08:23;6.93;;;3.80;;
70102;SDS011;57470;50.034;15.256;2023-08-24T14:10:49;6.60;;;3.03;;
70102;SDS011;57470;50.034;15.256;2023-08-24T14:13:15;8.77;;;3.40;;
70102;SDS011;57470;50.034;15.256;2023-08-24T14:15:40;5.80;;;3.55;;
70102;SDS011;57470;50.034;15.256;2023-08-24T14:18:06;6.57;;;3.50;;
70102;SDS011;57470;50.034;15.256;2023-08-24T14:20:32;5.80;;;2.85;;
70102;SDS011;57470;50.034;15.256;2023-08-24T14:22:58;6.40;;;3.17;;
70102;SDS011;57470;50.034;15.256;2023-08-24T14:25:24;6.93;;;2.80;;
70102;SDS011;57470;50.034;15.256;2023-08-24T14:27:49;13.27;;;3.27;;
70102;SDS011;57470;50.034;15.256;2023-08-24T14:30:14;6.03;;;2.73;;
70102;SDS011;57470;50.034;15.256;2023-08-24T14:32:40;7.70;;;3.03;;
70102;SDS011;57470;50.034;15.256;2023-08-24T14:35:05;7.93;;;3.10;;
70102;SDS011;57470;50.034;15.256;2023-08-24T14:37:31;13.23;;;3.90;;
70102;SDS011;57470;50.034;15.256;2023-08-24T14:39:58;6.35;;;3.25;;
70102;SDS011;57470;50.034;15.256;2023-08-24T14:42:24;5.50;;;2.93;;